Time;durP1;ratioP1;P1;durP2;ratioP2;P2;SDS_P1;SDS_P2;PMS_P1;PMS_P2;Temp;Humidity;BMP_temperature;BMP_pressure;BME280_temperature;BME280_humidity;BME280_pressure;Samples;Min_cycle;Max_cycle;Signal;HPM_P1;HPM_P2
2022/07/17 00:01:06;;;;;;;1.77;1.67;;;;;;;20.82;55.31;97379.53;10375795;28;20104;-22
2022/07/17 00:06:07;;;;;;;1.45;1.35;;;;;;;20.79;55.36;97385.44;10373037;28;20056;-22
2022/07/17 00:11:07;;;;;;;1.50;1.40;;;;;;;20.78;55.48;97385.44;10376574;28;20022;-23
2022/07/17 00:16:07;;;;;;;1.52;1.42;;;;;;;20.76;55.37;97377.81;10374515;28;20157;-23
2022/07/17 00:21:08;;;;;;;1.65;1.55;;;;;;;20.74;55.68;97378.66;10373467;28;20041;-22
2022/07/17 00:26:09;;;;;;;1.60;1.50;;;;;;;20.96;55.49;97381.25;10373608;28;20404;-23
2022/07/17 00:31:09;;;;;;;1.55;1.42;;;;;;;21.09;55.27;97387.22;10372888;28;20128;-22
2022/07/17 00:36:09;;;;;;;1.23;0.83;;;;;;;20.99;54.90;97390.59;10370716;28;20034;-23
2022/07/17 00:41:14;;;;;;;1.25;1.15;;;;;;;20.87;55.38;97376.16;10376767;28;20105;-22
2022/07/17 00:46:14;;;;;;;1.70;1.60;;;;;;;20.81;55.32;97370.19;10371931;28;20098;-23
2022/07/17 00:51:14;;;;;;;1.45;1.35;;;;;;;20.80;55.35;97374.41;10375179;28;20113;-23
2022/07/17 00:56:17;;;;;;;1.50;1.40;;;;;;;20.77;55.59;97374.44;10372420;28;20035;-22
2022/07/17 01:01:18;;;;;;;1.23;1.20;;;;;;;20.78;55.49;97375.25;10371826;28;20022;-22
2022/07/17 01:06:19;;;;;;;1.52;1.42;;;;;;;20.76;55.47;97367.66;10374769;28;20107;-22
2022/07/17 01:11:19;;;;;;;1.63;1.52;;;;;;;20.94;55.61;97361.75;10370646;28;20105;-22
2022/07/17 01:16:20;;;;;;;1.30;1.20;;;;;;;21.09;55.02;97367.69;10373056;28;20529;-22
2022/07/17 01:21:20;;;;;;;1.17;1.13;;;;;;;20.99;55.11;97360.06;10377308;28;20117;-22
2022/07/17 01:26:21;;;;;;;1.30;1.20;;;;;;;20.88;55.30;97365.13;10372632;28;20419;-22
2022/07/17 01:31:21;;;;;;;1.37;1.27;;;;;;;20.84;55.32;97365.97;10372331;28;20095;-22
2022/07/17 01:36:25;;;;;;;1.37;1.27;;;;;;;20.81;55.18;97360.00;10371117;28;20030;-22
2022/07/17 01:41:25;;;;;;;1.50;1.40;;;;;;;20.80;55.23;97364.25;10371745;28;20081;-22
2022/07/17 01:46:25;;;;;;;1.10;1.10;;;;;;;20.78;55.57;97360.84;10369070;28;20112;-22
2022/07/17 01:51:27;;;;;;;1.20;1.10;;;;;;;20.75;55.51;97362.53;10372072;28;20385;-22
2022/07/17 01:56:27;;;;;;;1.63;1.40;;;;;;;20.93;55.55;97358.34;10370534;28;20065;-22
2022/07/17 02:01:28;;;;;;;1.25;1.15;;;;;;;21.10;55.54;97366.84;10369840;28;20129;-22
2022/07/17 02:06:28;;;;;;;1.33;1.23;;;;;;;20.97;55.10;97352.41;10372790;28;20099;-23
2022/07/17 02:11:29;;;;;;;0.90;0.90;;;;;;;20.90;55.51;97358.34;10371283;28;20116;-24
2022/07/17 02:16:29;;;;;;;1.52;1.42;;;;;;;20.82;55.38;97352.34;10371033;28;20095;-23
2022/07/17 02:21:29;;;;;;;1.20;1.10;;;;;;;20.82;55.62;97360.00;10370270;28;20056;-23
2022/07/17 02:26:30;;;;;;;1.33;1.23;;;;;;;20.82;55.32;97356.63;10370147;28;20026;-22
2022/07/17 02:31:30;;;;;;;1.03;1.03;;;;;;;20.81;55.42;97354.94;10365642;28;20044;-22
2022/07/17 02:36:31;;;;;;;1.20;1.10;;;;;;;20.78;55.51;97350.66;10364918;28;20037;-23
2022/07/17 02:41:31;;;;;;;1.70;1.30;;;;;;;20.92;55.69;97353.25;10360403;28;20878;-23
2022/07/17 02:46:31;;;;;;;1.60;1.50;;;;;;;21.08;55.39;97353.28;10366466;28;20080;-22
2022/07/17 02:51:32;;;;;;;1.27;0.83;;;;;;;21.07;54.90;97354.09;10369635;28;20507;-22
2022/07/17 02:56:32;;;;;;;1.43;1.23;;;;;;;20.91;55.31;97347.34;10365956;28;20108;-22
2022/07/17 03:01:32;;;;;;;1.30;1.20;;;;;;;20.82;55.41;97344.72;10366031;28;20034;-22
2022/07/17 03:06:33;;;;;;;1.40;1.30;;;;;;;20.77;55.48;97333.72;10369402;28;20276;-21
2022/07/17 03:11:33;;;;;;;1.13;1.02;;;;;;;20.82;55.56;97341.34;10368950;28;20837;-23
2022/07/17 03:16:34;;;;;;;1.23;1.13;;;;;;;20.78;55.65;97339.63;10370028;28;20030;-22
2022/07/17 03:21:34;;;;;;;1.20;1.10;;;;;;;20.80;55.50;97338.78;10368396;28;20276;-22
2022/07/17 03:26:35;;;;;;;1.60;1.48;;;;;;;20.85;56.26;97342.19;10369833;28;20033;-22
2022/07/17 03:31:35;;;;;;;1.48;1.38;;;;;;;20.88;55.59;97304.03;10369435;28;20184;-22
2022/07/17 03:36:36;;;;;;;1.10;1.00;;;;;;;21.06;54.84;97331.19;10371613;28;20034;-22
2022/07/17 03:41:36;;;;;;;1.30;1.20;;;;;;;20.93;55.20;97335.44;10375785;28;20084;-23
2022/07/17 03:46:37;;;;;;;0.90;0.90;;;;;;;20.88;55.49;97337.13;10375912;28;20041;-22
2022/07/17 03:51:37;;;;;;;1.30;1.20;;;;;;;20.85;55.32;97339.66;10375114;28;20037;-22
2022/07/17 03:56:38;;;;;;;0.93;0.93;;;;;;;20.77;55.27;97331.16;10369502;28;20088;-23
2022/07/17 04:01:38;;;;;;;0.98;0.98;;;;;;;20.82;55.42;97346.44;10373729;28;20292;-22
2022/07/17 04:06:38;;;;;;;1.00;1.00;;;;;;;20.81;55.41;97345.56;10383018;28;20378;-22
2022/07/17 04:11:39;;;;;;;1.23;1.10;;;;;;;20.81;55.70;97343.03;10373874;28;20551;-22
2022/07/17 04:16:39;;;;;;;1.37;1.27;;;;;;;21.05;55.86;97340.53;10376225;28;20296;-22
2022/07/17 04:21:40;;;;;;;0.60;0.60;;;;;;;21.11;55.21;97340.53;10381835;28;20355;-23
2022/07/17 04:26:41;;;;;;;0.80;0.80;;;;;;;20.97;55.35;97339.69;10376626;28;20354;-22
2022/07/17 04:31:42;;;;;;;0.93;0.93;;;;;;;20.89;55.16;97340.53;10379602;28;20488;-22
2022/07/17 04:36:42;;;;;;;0.80;0.80;;;;;;;20.86;55.30;97338.84;10372500;28;20037;-23
2022/07/17 04:41:42;;;;;;;1.17;1.07;;;;;;;20.84;55.30;97345.59;10375697;28;20037;-22
2022/07/17 04:46:43;;;;;;;1.30;1.20;;;;;;;20.84;55.56;97339.66;10376002;28;20334;-22
2022/07/17 04:51:43;;;;;;;0.80;0.80;;;;;;;20.82;55.57;97342.19;10377205;28;20113;-22
2022/07/17 04:56:44;;;;;;;1.20;1.10;;;;;;;20.80;55.49;97333.69;10379131;28;20037;-22
2022/07/17 05:01:44;;;;;;;1.13;1.07;;;;;;;21.01;55.60;97349.03;10381084;28;20037;-22
2022/07/17 05:06:44;;;;;;;1.00;1.00;;;;;;;21.12;55.01;97347.31;10376395;28;20052;-22
2022/07/17 05:11:45;;;;;;;0.80;0.80;;;;;;;21.03;55.02;97354.97;10378745;28;20092;-22
2022/07/17 05:16:45;;;;;;;1.20;1.10;;;;;;;20.93;55.55;97354.94;10377083;28;20038;-22
2022/07/17 05:21:45;;;;;;;1.20;1.10;;;;;;;20.80;55.34;97354.06;10374884;28;20091;-22
2022/07/17 05:26:46;;;;;;;1.33;1.23;;;;;;;20.85;55.58;97362.56;10377922;28;20044;-22
2022/07/17 05:31:46;;;;;;;0.93;0.90;;;;;;;20.84;55.53;97365.97;10377130;28;20033;-22
2022/07/17 05:36:47;;;;;;;0.90;0.90;;;;;;;20.82;55.41;97362.53;10370924;28;20034;-22
2022/07/17 05:41:48;;;;;;;1.02;0.95;;;;;;;20.81;55.54;97363.38;10374551;28;20045;-23
2022/07/17 05:46:48;;;;;;;0.90;0.90;;;;;;;20.95;55.59;97363.44;10375385;28;20049;-23
2022/07/17 05:51:48;;;;;;;1.30;1.20;;;;;;;21.13;55.52;97364.28;10375296;28;20040;-23
2022/07/17 05:56:49;;;;;;;0.90;0.90;;;;;;;21.07;55.20;97363.44;10376247;28;20263;-22
2022/07/17 06:01:49;;;;;;;0.70;0.70;;;;;;;20.87;55.41;97344.78;10372996;28;20034;-22
2022/07/17 06:06:50;;;;;;;1.70;1.10;;;;;;;20.89;55.53;97356.66;10376818;28;20099;-22
2022/07/17 06:11:50;;;;;;;1.77;1.30;;;;;;;20.88;55.64;97361.75;10371771;28;20038;-22
2022/07/17 06:16:51;;;;;;;0.70;0.70;;;;;;;20.80;55.67;97343.06;10371480;28;20042;-22
2022/07/17 06:21:51;;;;;;;0.95;0.90;;;;;;;20.84;55.53;97344.72;10367932;28;20030;-22
2022/07/17 06:26:52;;;;;;;0.90;0.90;;;;;;;20.83;55.49;97349.00;10373080;28;20056;-22
2022/07/17 06:31:52;;;;;;;0.93;0.90;;;;;;;20.86;55.90;97353.25;10371936;28;20034;-22
2022/07/17 06:36:53;;;;;;;1.03;1.00;;;;;;;21.09;55.35;97362.59;10370487;28;20057;-22
2022/07/17 06:41:53;;;;;;;0.70;0.70;;;;;;;21.12;54.91;97349.88;10378602;28;20285;-23
2022/07/17 06:46:54;;;;;;;0.80;0.80;;;;;;;20.97;55.35;97357.50;10375107;28;20030;-22
2022/07/17 06:51:55;;;;;;;1.00;1.00;;;;;;;20.91;55.64;97361.75;10377024;28;20168;-22
2022/07/17 06:56:55;;;;;;;0.68;0.68;;;;;;;20.88;55.60;97361.75;10372965;28;20026;-22
2022/07/17 07:01:55;;;;;;;0.80;0.80;;;;;;;20.86;55.50;97369.38;10374599;28;20140;-22
2022/07/17 07:06:56;;;;;;;0.97;0.90;;;;;;;20.85;55.57;97372.75;10379491;28;20510;-22
2022/07/17 07:11:56;;;;;;;1.27;1.00;;;;;;;20.83;55.56;97364.25;10371230;28;20367;-22
2022/07/17 07:16:57;;;;;;;0.88;0.88;;;;;;;20.84;55.35;97363.41;10371189;28;20046;-22
2022/07/17 07:21:58;;;;;;;0.80;0.80;;;;;;;21.05;55.38;97366.00;10375016;28;20488;-23
2022/07/17 07:26:58;;;;;;;0.53;0.53;;;;;;;21.08;55.02;97349.88;10376865;28;20038;-22
2022/07/17 07:31:58;;;;;;;0.90;0.90;;;;;;;21.03;55.13;97362.59;10370494;28;20034;-23
2022/07/17 07:36:59;;;;;;;0.80;0.80;;;;;;;20.88;55.75;97342.22;10370583;28;20038;-23
2022/07/17 07:41:59;;;;;;;1.00;1.00;;;;;;;20.91;55.43;97341.38;10386125;28;20472;-23
2022/07/17 07:47:00;;;;;;;1.17;1.00;;;;;;;20.88;55.56;97337.13;10378629;28;20141;-22
2022/07/17 07:52:02;;;;;;;1.20;1.10;;;;;;;20.80;55.59;97335.41;10377635;28;20126;-23
2022/07/17 07:57:03;;;;;;;0.85;0.85;;;;;;;20.87;55.60;97350.72;10380393;28;20041;-23
2022/07/17 08:02:03;;;;;;;0.75;0.75;;;;;;;20.86;55.59;97354.09;10384080;28;20034;-22
2022/07/17 08:07:03;;;;;;;1.20;1.10;;;;;;;21.01;55.68;97353.25;10379992;28;20165;-22
2022/07/17 08:12:04;;;;;;;0.87;0.87;;;;;;;21.17;55.53;97349.88;10376385;28;20053;-22
2022/07/17 08:17:04;;;;;;;1.05;1.02;;;;;;;21.01;55.26;97337.97;10379318;28;20038;-22
2022/07/17 08:22:05;;;;;;;1.10;1.03;;;;;;;20.99;55.46;97355.78;10381299;28;20030;-22
2022/07/17 08:27:05;;;;;;;1.10;1.00;;;;;;;20.94;55.44;97362.59;10381000;28;20030;-22
2022/07/17 08:32:06;;;;;;;0.60;0.60;;;;;;;20.91;55.77;97365.16;10377393;28;20026;-23
2022/07/17 08:37:06;;;;;;;0.88;0.88;;;;;;;20.90;55.61;97371.06;10376361;28;20053;-22
2022/07/17 08:42:07;;;;;;;1.33;1.23;;;;;;;20.90;55.43;97371.06;10382911;28;20022;-22
2022/07/17 08:47:09;;;;;;;0.95;0.95;;;;;;;20.88;55.60;97372.78;10378866;28;20036;-22
2022/07/17 08:52:10;;;;;;;1.00;1.00;;;;;;;20.94;56.28;97366.81;10379999;28;20033;-22
2022/07/17 08:57:11;;;;;;;1.35;1.25;;;;;;;21.14;55.50;97368.53;10379076;28;20038;-23
2022/07/17 09:02:11;;;;;;;0.70;0.70;;;;;;;21.17;54.79;97365.13;10380103;28;20415;-22
2022/07/17 09:07:11;;;;;;;0.80;0.80;;;;;;;21.04;55.66;97369.38;10375447;28;20033;-22
2022/07/17 09:12:12;;;;;;;1.07;0.97;;;;;;;20.97;55.56;97377.88;10375201;28;20044;-22
2022/07/17 09:17:12;;;;;;;0.70;0.70;;;;;;;20.95;55.57;97374.47;10374362;28;20034;-22
2022/07/17 09:22:17;;;;;;;0.90;0.90;;;;;;;20.73;55.61;97337.09;10378567;28;20034;-22
2022/07/17 09:27:24;;;;;;;0.70;0.70;;;;;;;20.91;55.74;97372.78;10376939;28;20335;-23
2022/07/17 09:32:27;;;;;;;0.80;0.80;;;;;;;20.91;55.70;97362.59;10374211;28;20041;-21
2022/07/17 09:37:29;;;;;;;0.80;0.80;;;;;;;20.90;55.61;97365.97;10373074;28;20037;-23
2022/07/17 09:42:33;;;;;;;0.77;0.75;;;;;;;21.13;55.98;97368.56;10380989;28;20062;-23
2022/07/17 09:47:35;;;;;;;1.27;0.80;;;;;;;21.21;55.02;97380.41;10379425;28;20030;-23
2022/07/17 09:52:38;;;;;;;0.77;0.77;;;;;;;21.07;55.34;97374.47;10372758;28;20108;-22
2022/07/17 09:57:41;;;;;;;1.15;1.05;;;;;;;21.01;55.61;97389.75;10377446;28;20037;-22
2022/07/17 10:02:42;;;;;;;0.93;0.90;;;;;;;20.96;55.83;97386.34;10376682;28;20547;-23
2022/07/17 10:07:47;;;;;;;1.27;1.17;;;;;;;20.95;55.75;97399.94;10380889;28;20447;-22
2022/07/17 10:12:50;;;;;;;0.80;0.80;;;;;;;20.94;55.61;97397.38;10372750;28;20030;-22
2022/07/17 10:17:50;;;;;;;1.13;1.02;;;;;;;20.92;55.72;97384.66;10371801;28;20049;-22
2022/07/17 10:22:51;;;;;;;1.10;1.00;;;;;;;20.92;55.98;97374.50;10375815;28;20038;-22
2022/07/17 10:27:55;;;;;;;0.70;0.70;;;;;;;21.03;55.55;97362.59;10378888;28;20034;-22
2022/07/17 10:32:58;;;;;;;0.60;0.60;;;;;;;21.23;55.65;97376.16;10370227;28;20477;-23
2022/07/17 10:38:11;;;;;;;0.98;0.98;;;;;;;21.12;55.43;97371.91;10373274;28;20115;-22
2022/07/17 10:43:12;;;;;;;1.10;1.00;;;;;;;21.03;55.69;97365.16;10374696;28;20160;-22
2022/07/17 10:48:15;;;;;;;1.10;1.00;;;;;;;20.97;55.72;97364.31;10373872;28;20101;-24
2022/07/17 10:53:22;;;;;;;0.80;0.80;;;;;;;20.96;55.75;97371.06;10376268;28;20493;-22
2022/07/17 10:58:27;;;;;;;0.80;0.80;;;;;;;20.95;55.63;97369.38;10373634;28;20423;-23
2022/07/17 11:03:29;;;;;;;1.73;1.20;;;;;;;20.94;55.85;97365.16;10375071;28;20487;-22
2022/07/17 11:08:30;;;;;;;0.70;0.70;;;;;;;20.93;55.85;97355.81;10378541;28;20042;-22
2022/07/17 11:13:30;;;;;;;0.73;0.73;;;;;;;21.07;56.29;97363.44;10378107;28;20400;-23
2022/07/17 11:18:30;;;;;;;1.27;1.17;;;;;;;21.21;56.03;97362.59;10382027;28;20044;-22
2022/07/17 11:23:33;;;;;;;0.77;0.77;;;;;;;21.22;55.33;97358.34;10380299;28;20075;-23
2022/07/17 11:28:36;;;;;;;0.73;0.73;;;;;;;21.06;55.83;97365.13;10380931;28;20029;-22
2022/07/17 11:33:37;;;;;;;1.13;1.02;;;;;;;20.99;55.46;97355.78;10382270;28;20302;-22
2022/07/17 11:38:37;;;;;;;0.70;0.70;;;;;;;20.96;55.76;97348.16;10386841;28;20109;-22
2022/07/17 11:43:41;;;;;;;2.13;0.95;;;;;;;20.98;55.93;97349.00;10374471;28;20499;-23
2022/07/17 11:48:43;;;;;;;2.28;1.17;;;;;;;20.96;55.73;97334.59;10361230;28;20026;-22
2022/07/17 11:53:44;;;;;;;4.30;1.65;;;;;;;20.97;56.15;97336.31;10367617;28;20044;-23
2022/07/17 11:58:46;;;;;;;2.80;1.30;;;;;;;20.98;55.89;97328.63;10368727;28;20469;-22
2022/07/17 12:03:57;;;;;;;1.13;1.00;;;;;;;21.20;55.91;97329.47;10371610;28;20292;-22
2022/07/17 12:08:57;;;;;;;12.50;1.17;;;;;;;21.27;55.31;97326.94;10364188;28;20096;-24
2022/07/17 12:14:06;;;;;;;15.40;3.03;;;;;;;21.12;55.85;97326.94;10370053;28;20099;-22
2022/07/17 12:19:11;;;;;;;10.57;2.38;;;;;;;21.08;55.86;97315.09;10366778;28;20041;-23
2022/07/17 12:24:18;;;;;;;11.68;2.78;;;;;;;21.03;56.04;97318.47;10371090;28;20032;-23
2022/07/17 12:29:19;;;;;;;14.05;2.30;;;;;;;21.07;56.18;97320.16;10378637;28;20444;-24
2022/07/17 12:34:19;;;;;;;6.57;1.52;;;;;;;20.99;55.79;97320.16;10370522;28;20103;-23
2022/07/17 12:39:20;;;;;;;9.93;1.93;;;;;;;21.06;56.26;97321.84;10383710;28;20044;-24
2022/07/17 12:44:20;;;;;;;9.27;1.73;;;;;;;21.05;57.68;97325.25;10372786;28;20072;-23
2022/07/17 12:49:21;;;;;;;4.93;1.83;;;;;;;21.30;56.71;97315.91;10365819;28;20345;-23
2022/07/17 12:54:21;;;;;;;2.83;1.65;;;;;;;21.37;56.02;97309.91;10373953;28;20666;-24
2022/07/17 12:59:22;;;;;;;3.80;1.73;;;;;;;21.15;56.07;97321.84;10370094;28;20046;-23
2022/07/17 13:04:22;;;;;;;4.77;1.33;;;;;;;21.04;56.22;97310.81;10373862;28;20080;-24
2022/07/17 13:09:22;;;;;;;5.07;1.50;;;;;;;21.08;56.97;97321.84;10379724;28;20033;-24
2022/07/17 13:14:23;;;;;;;6.50;2.45;;;;;;;21.01;56.51;97318.47;10376128;28;20384;-23
2022/07/17 13:19:23;;;;;;;5.93;1.60;;;;;;;21.01;56.47;97312.53;10377895;28;20117;-24
2022/07/17 13:24:24;;;;;;;1.53;1.43;;;;;;;21.14;57.48;97306.59;10379337;28;20413;-23
2022/07/17 13:29:26;;;;;;;3.60;1.83;;;;;;;21.34;56.83;97297.19;10375595;28;20497;-23
2022/07/17 13:34:26;;;;;;;2.72;1.38;;;;;;;21.30;56.59;97288.72;10369732;28;21269;-23
2022/07/17 13:39:26;;;;;;;2.50;1.47;;;;;;;21.16;56.05;97281.97;10375400;28;20029;-23
2022/07/17 13:44:27;;;;;;;2.67;1.40;;;;;;;21.14;56.02;97284.50;10379868;28;20037;-23
2022/07/17 13:49:27;;;;;;;4.73;2.00;;;;;;;21.03;56.06;97265.84;10378402;28;20140;-23
2022/07/17 13:54:28;;;;;;;2.47;2.28;;;;;;;21.14;56.19;97278.56;10375096;28;20037;-23
2022/07/17 13:59:28;;;;;;;2.70;2.07;;;;;;;21.08;57.39;97283.66;10376054;28;20107;-23
2022/07/17 14:04:28;;;;;;;4.20;1.40;;;;;;;21.31;57.14;97282.75;10375998;28;20029;-23
2022/07/17 14:09:29;;;;;;;2.00;1.23;;;;;;;21.39;56.07;97282.78;10374980;28;20025;-24
2022/07/17 14:14:29;;;;;;;2.97;1.40;;;;;;;21.28;56.53;97274.28;10370762;28;20041;-23
2022/07/17 14:19:30;;;;;;;2.20;1.60;;;;;;;21.11;56.71;97253.09;10363512;28;20292;-23
2022/07/17 14:24:30;;;;;;;1.50;1.37;;;;;;;21.17;56.99;97274.31;10370546;28;20044;-23
2022/07/17 14:29:30;;;;;;;2.28;1.90;;;;;;;21.11;57.36;97263.28;10374141;28;20809;-23
2022/07/17 14:34:31;;;;;;;4.50;1.93;;;;;;;21.12;57.25;97268.38;10368357;28;20096;-23
2022/07/17 14:39:32;;;;;;;2.97;2.13;;;;;;;21.17;58.25;97264.13;10376790;28;20053;-24
2022/07/17 14:44:33;;;;;;;2.40;1.95;;;;;;;21.37;57.72;97270.03;10372121;28;20108;-23
2022/07/17 14:49:34;;;;;;;1.52;1.10;;;;;;;21.37;56.06;97271.72;10374505;28;20087;-23
2022/07/17 14:54:35;;;;;;;1.50;1.38;;;;;;;21.24;56.63;97273.44;10364926;28;20115;-24
2022/07/17 14:59:35;;;;;;;1.50;1.40;;;;;;;21.20;56.76;97271.75;10366750;28;20029;-23
2022/07/17 15:04:36;;;;;;;5.00;1.80;;;;;;;21.19;57.13;97272.63;10368283;28;20121;-24
2022/07/17 15:09:36;;;;;;;1.80;1.70;;;;;;;21.14;56.96;97266.66;10358430;28;20304;-22
2022/07/17 15:14:37;;;;;;;2.33;1.88;;;;;;;21.14;57.01;97266.66;10364118;28;20038;-22
2022/07/17 15:19:37;;;;;;;1.67;1.57;;;;;;;21.27;57.66;97272.59;10363597;28;20063;-23
2022/07/17 15:24:37;;;;;;;6.13;1.70;;;;;;;21.42;57.17;97273.41;10365631;28;20030;-23
2022/07/17 15:29:38;;;;;;;2.97;1.40;;;;;;;21.34;56.60;97272.59;10374969;28;20034;-23
2022/07/17 15:34:38;;;;;;;4.35;1.45;;;;;;;21.27;57.00;97270.91;10368851;28;20176;-24
2022/07/17 15:39:39;;;;;;;4.70;1.73;;;;;;;21.23;56.94;97274.28;10367167;28;20037;-23
2022/07/17 15:44:39;;;;;;;6.13;2.00;;;;;;;21.23;57.44;97273.47;10369143;28;20292;-22
2022/07/17 15:49:40;;;;;;;5.67;1.93;;;;;;;21.17;56.82;97269.22;10374263;28;20038;-23
2022/07/17 15:54:41;;;;;;;6.32;2.00;;;;;;;21.18;57.15;97268.38;10373321;28;20184;-24
2022/07/17 15:59:41;;;;;;;4.40;1.42;;;;;;;21.34;56.87;97266.63;10379085;28;20465;-23
2022/07/17 16:04:41;;;;;;;2.80;1.20;;;;;;;21.46;56.32;97256.44;10379810;28;20109;-23
2022/07/17 16:09:42;;;;;;;1.20;1.00;;;;;;;21.34;56.92;97252.22;10383076;28;20485;-23
2022/07/17 16:14:43;;;;;;;1.83;1.20;;;;;;;21.25;56.97;97262.44;10375305;28;20325;-23
2022/07/17 16:19:43;;;;;;;3.10;1.47;;;;;;;21.24;56.77;97255.59;10380466;28;20033;-23
2022/07/17 16:24:43;;;;;;;4.10;1.97;;;;;;;21.20;57.08;97237.78;10380008;28;20034;-23
2022/07/17 16:29:44;;;;;;;2.63;1.87;;;;;;;21.20;57.12;97237.78;10379001;28;20030;-23
2022/07/17 16:34:44;;;;;;;2.83;2.00;;;;;;;21.18;56.87;97240.38;10375093;28;20079;-23
2022/07/17 16:39:45;;;;;;;2.07;1.50;;;;;;;21.45;57.50;97235.19;10381809;28;20029;-23
2022/07/17 16:44:45;;;;;;;1.67;0.90;;;;;;;21.48;56.29;97232.63;10378575;28;20033;-23
2022/07/17 16:49:45;;;;;;;2.87;1.37;;;;;;;21.32;56.77;97233.50;10379797;28;20570;-23
2022/07/17 16:54:46;;;;;;;0.97;0.90;;;;;;;21.23;56.58;97225.91;10382664;28;20302;-22
2022/07/17 16:59:46;;;;;;;2.07;1.30;;;;;;;21.18;56.52;97230.19;10377670;28;20311;-23
2022/07/17 17:04:47;;;;;;;3.00;1.10;;;;;;;21.18;56.52;97239.50;10380442;28;20287;-23
2022/07/17 17:09:47;;;;;;;1.40;1.30;;;;;;;21.13;56.42;97247.16;10377560;28;20069;-23
2022/07/17 17:14:48;;;;;;;2.43;1.20;;;;;;;21.19;56.97;97241.19;10374322;28;20798;-23
2022/07/17 17:19:48;;;;;;;3.38;1.02;;;;;;;21.41;57.15;97238.56;10376419;28;20115;-23
2022/07/17 17:24:49;;;;;;;1.20;1.10;;;;;;;21.44;56.38;97241.13;10379900;28;20034;-23
2022/07/17 17:29:49;;;;;;;1.13;0.90;;;;;;;21.27;56.36;97239.47;10374386;28;20033;-24
2022/07/17 17:34:50;;;;;;;1.95;1.10;;;;;;;21.22;56.40;97241.22;10368769;28;20193;-23
2022/07/17 17:39:50;;;;;;;4.63;1.52;;;;;;;21.19;56.73;97239.50;10378458;28;20459;-23
2022/07/17 17:44:51;;;;;;;2.72;1.17;;;;;;;21.18;56.82;97249.69;10375799;28;20100;-23
2022/07/17 17:49:51;;;;;;;2.63;1.80;;;;;;;21.14;56.81;97248.84;10377838;28;20100;-23
2022/07/17 17:54:51;;;;;;;3.30;1.67;;;;;;;21.11;57.41;97238.69;10377982;28;20045;-24
2022/07/17 17:59:52;;;;;;;1.80;1.10;;;;;;;21.39;56.85;97240.28;10374949;28;20034;-22
2022/07/17 18:04:52;;;;;;;0.80;0.80;;;;;;;21.40;56.17;97251.34;10375872;28;20041;-23
2022/07/17 18:09:52;;;;;;;1.33;1.23;;;;;;;21.28;56.25;97262.41;10366438;28;20057;-23
2022/07/17 18:14:53;;;;;;;1.40;1.10;;;;;;;21.22;56.55;97266.69;10367268;28;20034;-22
2022/07/17 18:19:54;;;;;;;1.05;0.95;;;;;;;21.20;57.09;97273.44;10361814;28;20407;-23
2022/07/17 18:24:54;;;;;;;1.30;1.15;;;;;;;21.18;56.60;97278.56;10374950;28;20041;-23
2022/07/17 18:29:54;;;;;;;1.43;0.80;;;;;;;21.19;56.51;97277.72;10369243;28;20056;-23
2022/07/17 18:34:55;;;;;;;3.87;1.57;;;;;;;21.24;57.20;97283.63;10360370;28;20519;-24
2022/07/17 18:39:57;;;;;;;3.00;1.10;;;;;;;21.49;56.24;97280.16;10368510;28;20327;-23
2022/07/17 18:44:57;;;;;;;3.83;1.00;;;;;;;21.41;56.20;97289.53;10368964;28;20038;-23
2022/07/17 18:49:58;;;;;;;1.07;0.80;;;;;;;21.27;56.14;97286.19;10367546;28;20404;-23
2022/07/17 18:54:59;;;;;;;1.00;0.90;;;;;;;21.21;56.60;97286.19;10370957;28;20370;-23
2022/07/17 18:59:59;;;;;;;1.33;0.90;;;;;;;21.15;56.50;97287.91;10364447;28;20033;-23
2022/07/17 19:05:00;;;;;;;1.00;0.90;;;;;;;21.17;56.56;97293.84;10366381;28;20022;-23
2022/07/17 19:10:01;;;;;;;1.17;1.08;;;;;;;21.15;56.82;97306.56;10361577;28;20289;-23
2022/07/17 19:15:02;;;;;;;1.65;1.38;;;;;;;21.42;56.67;97308.22;10356495;28;20060;-23
2022/07/17 19:20:03;;;;;;;1.00;0.90;;;;;;;21.51;55.83;97308.19;10367213;28;20708;-24
2022/07/17 19:25:06;;;;;;;1.35;0.70;;;;;;;21.30;56.30;97313.34;10363057;28;20058;-23
2022/07/17 19:30:07;;;;;;;1.48;1.27;;;;;;;21.21;56.43;97324.38;10358030;28;20029;-23
2022/07/17 19:35:08;;;;;;;1.48;0.80;;;;;;;21.18;56.83;97332.03;10359509;28;20400;-23
2022/07/17 19:40:09;;;;;;;0.90;0.90;;;;;;;21.15;56.62;97347.31;10363088;28;20100;-22
2022/07/17 19:45:09;;;;;;;0.90;0.70;;;;;;;21.11;56.76;97350.72;10362610;28;20034;-24
2022/07/17 19:50:10;;;;;;;1.02;0.93;;;;;;;21.14;56.81;97360.06;10361692;28;20037;-23
2022/07/17 19:55:10;;;;;;;1.13;1.00;;;;;;;21.36;56.99;97354.94;10371912;28;20030;-23
2022/07/17 20:00:11;;;;;;;1.27;0.87;;;;;;;21.50;56.12;97360.00;10371303;28;20288;-23
2022/07/17 20:05:12;;;;;;;0.90;0.88;;;;;;;21.32;56.23;97371.06;10369728;28;20057;-22
2022/07/17 20:10:12;;;;;;;2.10;1.07;;;;;;;21.22;56.58;97379.56;10365291;28;20686;-23
2022/07/17 20:15:13;;;;;;;2.45;0.80;;;;;;;21.16;56.70;97377.03;10368318;28;20701;-22
2022/07/17 20:20:13;;;;;;;0.90;0.83;;;;;;;21.16;56.54;97391.47;10368522;28;20030;-23
2022/07/17 20:25:13;;;;;;;2.80;0.93;;;;;;;21.14;56.72;97391.44;10373044;28;20033;-23
2022/07/17 20:30:14;;;;;;;3.07;0.90;;;;;;;21.12;56.63;97377.00;10369920;28;20083;-23
2022/07/17 20:35:15;;;;;;;1.88;1.20;;;;;;;21.32;57.52;97378.69;10378550;28;20568;-23
2022/07/17 20:40:18;;;;;;;2.00;0.80;;;;;;;21.51;56.87;97374.44;10376630;28;20037;-23
2022/07/17 20:45:18;;;;;;;1.10;1.00;;;;;;;21.38;56.34;97376.16;10376604;28;20029;-23
2022/07/17 20:50:19;;;;;;;1.33;0.77;;;;;;;21.25;56.49;97373.63;10382205;28;20045;-23
2022/07/17 20:55:20;;;;;;;1.30;0.73;;;;;;;21.18;56.59;97375.34;10374195;28;20040;-23
2022/07/17 21:00:21;;;;;;;1.43;1.10;;;;;;;21.15;56.60;97372.78;10375935;28;20036;-23
2022/07/17 21:05:21;;;;;;;1.55;0.98;;;;;;;21.13;56.48;97373.66;10382326;28;20312;-23
2022/07/17 21:10:22;;;;;;;1.08;0.82;;;;;;;21.11;56.64;97363.44;10372561;28;20548;-23
2022/07/17 21:15:22;;;;;;;2.50;1.13;;;;;;;21.26;56.81;97370.22;10374235;28;20512;-22
2022/07/17 21:20:23;;;;;;;1.67;1.10;;;;;;;21.47;55.79;97365.97;10379613;28;20029;-23
2022/07/17 21:25:23;;;;;;;1.07;0.90;;;;;;;21.42;55.69;97356.63;10374684;28;20026;-22
2022/07/17 21:30:23;;;;;;;1.05;0.95;;;;;;;21.25;56.08;97364.31;10376005;28;20037;-23
2022/07/17 21:35:25;;;;;;;0.93;0.90;;;;;;;21.18;56.40;97361.75;10378587;28;20036;-24
2022/07/17 21:40:25;;;;;;;1.20;0.77;;;;;;;21.14;56.33;97372.78;10375411;28;20076;-23
2022/07/17 21:45:26;;;;;;;1.00;0.90;;;;;;;21.08;56.24;97368.56;10371369;28;20079;-22
2022/07/17 21:50:26;;;;;;;0.82;0.80;;;;;;;21.11;56.46;97372.78;10379333;28;20029;-24
2022/07/17 21:55:27;;;;;;;3.73;1.50;;;;;;;21.20;56.04;97385.50;10368420;28;20084;-23
2022/07/17 22:00:27;;;;;;;0.90;0.90;;;;;;;21.42;54.87;97387.19;10372675;28;20125;-23
2022/07/17 22:05:28;;;;;;;0.68;0.68;;;;;;;21.48;54.74;97389.75;10380436;28;20269;-24
2022/07/17 22:10:31;;;;;;;1.83;0.82;;;;;;;21.29;55.39;97386.34;10375384;28;20037;-22
2022/07/17 22:15:32;;;;;;;0.98;0.77;;;;;;;21.20;55.63;97388.91;10357724;28;20033;-23
2022/07/17 22:20:33;;;;;;;2.45;0.90;;;;;;;21.15;55.98;97377.88;10376697;28;20036;-24
2022/07/17 22:25:34;;;;;;;0.60;0.60;;;;;;;21.12;55.96;97372.78;10377821;28;20237;-23
2022/07/17 22:30:34;;;;;;;0.93;0.85;;;;;;;21.12;55.95;97372.78;10373152;28;20026;-23
2022/07/17 22:35:35;;;;;;;0.77;0.73;;;;;;;21.10;56.12;97368.53;10376289;28;20389;-23
2022/07/17 22:40:36;;;;;;;1.20;1.10;;;;;;;21.34;53.33;97358.34;10365004;28;20038;-24
2022/07/17 22:45:36;;;;;;;1.30;0.93;;;;;;;21.41;53.81;97353.22;10371528;28;20516;-23
2022/07/17 22:50:37;;;;;;;0.93;0.80;;;;;;;21.33;54.64;97366.84;10376320;28;20276;-23
2022/07/17 22:55:37;;;;;;;0.68;0.68;;;;;;;21.21;55.51;97357.50;10370736;28;20026;-22
2022/07/17 23:00:38;;;;;;;2.30;1.17;;;;;;;21.18;55.48;97360.06;10370025;28;20030;-23
2022/07/17 23:05:39;;;;;;;1.58;1.00;;;;;;;21.12;55.59;97362.59;10378150;28;20481;-22
2022/07/17 23:10:40;;;;;;;2.25;0.98;;;;;;;21.09;55.78;97359.19;10376825;28;20041;-23
2022/07/17 23:15:40;;;;;;;2.25;1.00;;;;;;;21.10;55.23;97361.75;10376703;28;20045;-23